sensor_id;sensor_type;location;lat;lon;timestamp;temperature;humidity
46732;DHT22;32477;51.474;5.696;2024-03-06T00:01:51;3.40;99.90
46732;DHT22;32477;51.474;5.696;2024-03-06T00:04:16;3.40;99.90
46732;DHT22;32477;51.474;5.696;2024-03-06T00:06:42;3.40;99.90
46732;DHT22;32477;51.474;5.696;2024-03-06T00:09:07;3.40;99.90
46732;DHT22;32477;51.474;5.696;2024-03-06T00:11:34;3.40;99.90
46732;DHT22;32477;51.474;5.696;2024-03-06T00:14:02;3.50;99.90
46732;DHT22;32477;51.474;5.696;2024-03-06T00:16:28;3.50;99.90
46732;DHT22;32477;51.474;5.696;2024-03-06T00:18:53;3.60;99.90
46732;DHT22;32477;51.474;5.696;2024-03-06T00:21:19;3.60;99.90
46732;DHT22;32477;51.474;5.696;2024-03-06T00:23:45;3.70;99.90
46732;DHT22;32477;51.474;5.696;2024-03-06T00:26:11;3.60;99.90
46732;DHT22;32477;51.474;5.696;2024-03-06T00:28:38;3.80;99.90
46732;DHT22;32477;51.474;5.696;2024-03-06T00:31:07;3.80;99.90
46732;DHT22;32477;51.474;5.696;2024-03-06T00:33:33;3.90;99.90
46732;DHT22;32477;51.474;5.696;2024-03-06T00:35:58;3.90;99.90
46732;DHT22;32477;51.474;5.696;2024-03-06T00:38:24;3.90;99.90
46732;DHT22;32477;51.474;5.696;2024-03-06T00:40:50;3.90;99.90
46732;DHT22;32477;51.474;5.696;2024-03-06T00:43:15;3.90;99.90
46732;DHT22;32477;51.474;5.696;2024-03-06T00:45:41;3.90;99.90
46732;DHT22;32477;51.474;5.696;2024-03-06T00:48:07;3.90;99.90
46732;DHT22;32477;51.474;5.696;2024-03-06T00:50:33;3.90;99.90
46732;DHT22;32477;51.474;5.696;2024-03-06T00:52:59;3.80;99.90
46732;DHT22;32477;51.474;5.696;2024-03-06T00:55:24;3.80;99.90
46732;DHT22;32477;51.474;5.696;2024-03-06T00:57:51;3.80;99.90
46732;DHT22;32477;51.474;5.696;2024-03-06T01:00:17;3.70;99.90
46732;DHT22;32477;51.474;5.696;2024-03-06T01:02:42;3.70;99.90
46732;DHT22;32477;51.474;5.696;2024-03-06T01:05:08;3.70;99.90
46732;DHT22;32477;51.474;5.696;2024-03-06T01:07:35;3.60;99.90
46732;DHT22;32477;51.474;5.696;2024-03-06T01:10:00;3.50;99.90
46732;DHT22;32477;51.474;5.696;2024-03-06T01:12:27;3.40;99.90
46732;DHT22;32477;51.474;5.696;2024-03-06T01:14:52;3.30;99.90
46732;DHT22;32477;51.474;5.696;2024-03-06T01:17:18;3.20;99.90
46732;DHT22;32477;51.474;5.696;2024-03-06T01:19:44;3.20;99.90
46732;DHT22;32477;51.474;5.696;2024-03-06T01:22:10;3.10;99.90
46732;DHT22;32477;51.474;5.696;2024-03-06T01:24:36;3.00;99.90
46732;DHT22;32477;51.474;5.696;2024-03-06T01:27:02;2.80;99.90
46732;DHT22;32477;51.474;5.696;2024-03-06T01:29:31;2.80;99.90
46732;DHT22;32477;51.474;5.696;2024-03-06T01:31:57;2.80;99.90
46732;DHT22;32477;51.474;5.696;2024-03-06T01:34:22;2.90;99.90
46732;DHT22;32477;51.474;5.696;2024-03-06T01:36:48;2.80;99.90
46732;DHT22;32477;51.474;5.696;2024-03-06T01:39:14;2.90;99.90
46732;DHT22;32477;51.474;5.696;2024-03-06T01:41:50;2.90;99.90
46732;DHT22;32477;51.474;5.696;2024-03-06T01:44:17;2.80;99.90
46732;DHT22;32477;51.474;5.696;2024-03-06T01:46:44;2.90;99.90
46732;DHT22;32477;51.474;5.696;2024-03-06T01:49:11;2.90;99.90
46732;DHT22;32477;51.474;5.696;2024-03-06T01:51:37;3.00;99.90
46732;DHT22;32477;51.474;5.696;2024-03-06T01:54:03;3.00;99.90
46732;DHT22;32477;51.474;5.696;2024-03-06T01:56:34;2.80;99.90
46732;DHT22;32477;51.474;5.696;2024-03-06T01:59:00;2.80;99.90
46732;DHT22;32477;51.474;5.696;2024-03-06T02:01:28;2.80;99.90
46732;DHT22;32477;51.474;5.696;2024-03-06T02:03:54;2.80;99.90
46732;DHT22;32477;51.474;5.696;2024-03-06T02:06:19;2.70;99.90
46732;DHT22;32477;51.474;5.696;2024-03-06T02:08:46;2.70;99.90
46732;DHT22;32477;51.474;5.696;2024-03-06T02:11:12;2.70;99.90
46732;DHT22;32477;51.474;5.696;2024-03-06T02:13:39;2.70;99.90
46732;DHT22;32477;51.474;5.696;2024-03-06T02:16:05;2.60;99.90
46732;DHT22;32477;51.474;5.696;2024-03-06T02:18:31;2.60;99.90
46732;DHT22;32477;51.474;5.696;2024-03-06T02:20:57;2.50;99.90
46732;DHT22;32477;51.474;5.696;2024-03-06T02:23:22;2.40;99.90
46732;DHT22;32477;51.474;5.696;2024-03-06T02:25:49;2.20;99.90
46732;DHT22;32477;51.474;5.696;2024-03-06T02:28:15;2.20;99.90
46732;DHT22;32477;51.474;5.696;2024-03-06T02:30:42;2.30;99.90
46732;DHT22;32477;51.474;5.696;2024-03-06T02:33:08;2.20;99.90
46732;DHT22;32477;51.474;5.696;2024-03-06T02:35:35;2.20;99.90
46732;DHT22;32477;51.474;5.696;2024-03-06T02:38:04;2.10;99.90
46732;DHT22;32477;51.474;5.696;2024-03-06T02:40:33;2.20;99.90
46732;DHT22;32477;51.474;5.696;2024-03-06T02:42:59;2.10;99.90
46732;DHT22;32477;51.474;5.696;2024-03-06T02:45:24;2.00;99.90
46732;DHT22;32477;51.474;5.696;2024-03-06T02:47:50;1.90;99.90
46732;DHT22;32477;51.474;5.696;2024-03-06T02:50:15;2.00;99.90
46732;DHT22;32477;51.474;5.696;2024-03-06T02:52:41;2.00;99.90
46732;DHT22;32477;51.474;5.696;2024-03-06T02:55:07;2.00;99.90
46732;DHT22;32477;51.474;5.696;2024-03-06T02:57:33;1.90;99.90
46732;DHT22;32477;51.474;5.696;2024-03-06T02:59:59;1.70;99.90
46732;DHT22;32477;51.474;5.696;2024-03-06T03:02:25;1.60;99.90
46732;DHT22;32477;51.474;5.696;2024-03-06T03:04:51;1.50;99.90
46732;DHT22;32477;51.474;5.696;2024-03-06T03:07:19;1.50;99.90
46732;DHT22;32477;51.474;5.696;2024-03-06T03:09:46;1.50;99.90
46732;DHT22;32477;51.474;5.696;2024-03-06T03:12:13;1.50;99.90
46732;DHT22;32477;51.474;5.696;2024-03-06T03:14:40;1.50;99.90
46732;DHT22;32477;51.474;5.696;2024-03-06T03:17:06;1.50;99.90
46732;DHT22;32477;51.474;5.696;2024-03-06T03:19:32;1.50;99.90
46732;DHT22;32477;51.474;5.696;2024-03-06T03:21:59;1.40;99.90
46732;DHT22;32477;51.474;5.696;2024-03-06T03:24:24;1.50;99.90
46732;DHT22;32477;51.474;5.696;2024-03-06T03:26:53;1.50;99.90
46732;DHT22;32477;51.474;5.696;2024-03-06T03:29:18;1.50;99.90
46732;DHT22;32477;51.474;5.696;2024-03-06T03:31:44;1.50;99.90
46732;DHT22;32477;51.474;5.696;2024-03-06T03:34:10;1.60;99.90
46732;DHT22;32477;51.474;5.696;2024-03-06T03:36:43;1.60;99.90
46732;DHT22;32477;51.474;5.696;2024-03-06T03:39:11;1.60;99.90
46732;DHT22;32477;51.474;5.696;2024-03-06T03:41:45;1.50;99.90
46732;DHT22;32477;51.474;5.696;2024-03-06T03:44:13;1.40;99.90
46732;DHT22;32477;51.474;5.696;2024-03-06T03:46:39;1.50;99.90
46732;DHT22;32477;51.474;5.696;2024-03-06T03:49:04;1.70;99.90
46732;DHT22;32477;51.474;5.696;2024-03-06T03:51:30;1.60;99.90
46732;DHT22;32477;51.474;5.696;2024-03-06T03:53:55;1.60;99.90
46732;DHT22;32477;51.474;5.696;2024-03-06T03:56:21;1.60;99.90
46732;DHT22;32477;51.474;5.696;2024-03-06T03:58:47;1.70;99.90
46732;DHT22;32477;51.474;5.696;2024-03-06T04:01:13;1.70;99.90
46732;DHT22;32477;51.474;5.696;2024-03-06T04:03:38;1.70;99.90
46732;DHT22;32477;51.474;5.696;2024-03-06T04:06:04;1.60;99.90
46732;DHT22;32477;51.474;5.696;2024-03-06T04:08:30;1.50;99.90
46732;DHT22;32477;51.474;5.696;2024-03-06T04:10:55;1.50;99.90
46732;DHT22;32477;51.474;5.696;2024-03-06T04:13:21;1.50;99.90
46732;DHT22;32477;51.474;5.696;2024-03-06T04:15:46;1.50;99.90
46732;DHT22;32477;51.474;5.696;2024-03-06T04:18:12;1.50;99.90
46732;DHT22;32477;51.474;5.696;2024-03-06T04:20:38;1.50;99.90
46732;DHT22;32477;51.474;5.696;2024-03-06T04:23:04;1.40;99.90
46732;DHT22;32477;51.474;5.696;2024-03-06T04:25:29;1.50;99.90
46732;DHT22;32477;51.474;5.696;2024-03-06T04:27:55;1.40;99.90
46732;DHT22;32477;51.474;5.696;2024-03-06T04:30:20;1.40;99.90
46732;DHT22;32477;51.474;5.696;2024-03-06T04:32:46;1.40;99.90
46732;DHT22;32477;51.474;5.696;2024-03-06T04:35:12;1.40;99.90
46732;DHT22;32477;51.474;5.696;2024-03-06T04:37:38;1.50;99.90
46732;DHT22;32477;51.474;5.696;2024-03-06T04:40:04;1.50;99.90
46732;DHT22;32477;51.474;5.696;2024-03-06T04:42:36;1.50;99.90
46732;DHT22;32477;51.474;5.696;2024-03-06T04:45:10;1.50;99.90
46732;DHT22;32477;51.474;5.696;2024-03-06T04:47:36;1.60;99.90
46732;DHT22;32477;51.474;5.696;2024-03-06T04:50:02;1.60;99.90
46732;DHT22;32477;51.474;5.696;2024-03-06T04:52:27;1.60;99.90
46732;DHT22;32477;51.474;5.696;2024-03-06T04:54:53;1.70;99.90
46732;DHT22;32477;51.474;5.696;2024-03-06T04:57:18;1.70;99.90
46732;DHT22;32477;51.474;5.696;2024-03-06T04:59:44;1.80;99.90
46732;DHT22;32477;51.474;5.696;2024-03-06T05:02:09;1.80;99.90
46732;DHT22;32477;51.474;5.696;2024-03-06T05:04:36;1.80;99.90
46732;DHT22;32477;51.474;5.696;2024-03-06T05:07:01;1.80;99.90
46732;DHT22;32477;51.474;5.696;2024-03-06T05:09:27;1.70;99.90
46732;DHT22;32477;51.474;5.696;2024-03-06T05:11:53;1.60;99.90
46732;DHT22;32477;51.474;5.696;2024-03-06T05:14:18;1.50;99.90
46732;DHT22;32477;51.474;5.696;2024-03-06T05:16:44;1.50;99.90
46732;DHT22;32477;51.474;5.696;2024-03-06T05:19:09;1.60;99.90
46732;DHT22;32477;51.474;5.696;2024-03-06T05:21:36;1.60;99.90
46732;DHT22;32477;51.474;5.696;2024-03-06T05:24:02;1.60;99.90
46732;DHT22;32477;51.474;5.696;2024-03-06T05:26:27;1.60;99.90
46732;DHT22;32477;51.474;5.696;2024-03-06T05:28:53;1.50;99.90
46732;DHT22;32477;51.474;5.696;2024-03-06T05:31:19;1.40;99.90
46732;DHT22;32477;51.474;5.696;2024-03-06T05:33:48;1.30;99.90
46732;DHT22;32477;51.474;5.696;2024-03-06T05:36:17;1.30;99.90
46732;DHT22;32477;51.474;5.696;2024-03-06T05:38:44;1.30;99.90
46732;DHT22;32477;51.474;5.696;2024-03-06T05:41:10;1.20;99.90
46732;DHT22;32477;51.474;5.696;2024-03-06T05:43:36;1.10;99.90
46732;DHT22;32477;51.474;5.696;2024-03-06T05:46:02;1.00;99.90
46732;DHT22;32477;51.474;5.696;2024-03-06T05:48:28;0.90;99.90
46732;DHT22;32477;51.474;5.696;2024-03-06T05:50:53;0.90;99.90
46732;DHT22;32477;51.474;5.696;2024-03-06T05:53:19;0.90;99.90
46732;DHT22;32477;51.474;5.696;2024-03-06T05:55:45;0.90;99.90
46732;DHT22;32477;51.474;5.696;2024-03-06T05:58:11;0.90;99.90
46732;DHT22;32477;51.474;5.696;2024-03-06T06:00:36;0.90;99.90
46732;DHT22;32477;51.474;5.696;2024-03-06T06:03:03;0.80;99.90
46732;DHT22;32477;51.474;5.696;2024-03-06T06:05:29;0.60;99.90
46732;DHT22;32477;51.474;5.696;2024-03-06T06:07:54;0.60;99.90
46732;DHT22;32477;51.474;5.696;2024-03-06T06:10:20;0.60;99.90
46732;DHT22;32477;51.474;5.696;2024-03-06T06:12:45;0.60;99.90
46732;DHT22;32477;51.474;5.696;2024-03-06T06:15:11;0.70;99.90
46732;DHT22;32477;51.474;5.696;2024-03-06T06:17:37;0.70;99.90
46732;DHT22;32477;51.474;5.696;2024-03-06T06:20:08;0.70;99.90
46732;DHT22;32477;51.474;5.696;2024-03-06T06:22:39;0.70;99.90
46732;DHT22;32477;51.474;5.696;2024-03-06T06:25:05;0.70;99.90
46732;DHT22;32477;51.474;5.696;2024-03-06T06:27:32;0.80;99.90
46732;DHT22;32477;51.474;5.696;2024-03-06T06:29:58;0.80;99.90
46732;DHT22;32477;51.474;5.696;2024-03-06T06:32:24;0.90;99.90
46732;DHT22;32477;51.474;5.696;2024-03-06T06:34:50;0.90;99.90
46732;DHT22;32477;51.474;5.696;2024-03-06T06:37:15;1.00;99.90
46732;DHT22;32477;51.474;5.696;2024-03-06T06:39:41;1.00;99.90
46732;DHT22;32477;51.474;5.696;2024-03-06T06:42:07;1.00;99.90
46732;DHT22;32477;51.474;5.696;2024-03-06T06:44:34;1.00;99.90
46732;DHT22;32477;51.474;5.696;2024-03-06T06:46:59;1.10;99.90
46732;DHT22;32477;51.474;5.696;2024-03-06T06:49:25;1.20;99.90
46732;DHT22;32477;51.474;5.696;2024-03-06T06:51:50;1.30;99.90
46732;DHT22;32477;51.474;5.696;2024-03-06T06:54:16;1.50;99.90
46732;DHT22;32477;51.474;5.696;2024-03-06T06:56:42;1.60;99.90
46732;DHT22;32477;51.474;5.696;2024-03-06T06:59:08;1.80;99.90
46732;DHT22;32477;51.474;5.696;2024-03-06T07:01:33;1.90;99.90
46732;DHT22;32477;51.474;5.696;2024-03-06T07:03:59;2.00;99.90
46732;DHT22;32477;51.474;5.696;2024-03-06T07:06:24;2.10;99.90
46732;DHT22;32477;51.474;5.696;2024-03-06T07:08:50;2.20;99.90
46732;DHT22;32477;51.474;5.696;2024-03-06T07:11:19;2.30;99.90
46732;DHT22;32477;51.474;5.696;2024-03-06T07:13:45;2.30;99.90
46732;DHT22;32477;51.474;5.696;2024-03-06T07:16:11;2.30;99.90
46732;DHT22;32477;51.474;5.696;2024-03-06T07:18:37;2.30;99.90
46732;DHT22;32477;51.474;5.696;2024-03-06T07:21:02;2.40;99.90
46732;DHT22;32477;51.474;5.696;2024-03-06T07:23:28;2.50;99.90
46732;DHT22;32477;51.474;5.696;2024-03-06T07:25:53;3.00;99.90
46732;DHT22;32477;51.474;5.696;2024-03-06T07:28:19;4.00;99.90
46732;DHT22;32477;51.474;5.696;2024-03-06T07:30:46;4.90;99.90
46732;DHT22;32477;51.474;5.696;2024-03-06T07:33:12;5.70;99.90
46732;DHT22;32477;51.474;5.696;2024-03-06T07:35:39;5.90;99.90
46732;DHT22;32477;51.474;5.696;2024-03-06T07:38:05;5.60;99.90
46732;DHT22;32477;51.474;5.696;2024-03-06T07:40:31;5.90;99.90
46732;DHT22;32477;51.474;5.696;2024-03-06T07:42:57;6.30;99.90
46732;DHT22;32477;51.474;5.696;2024-03-06T07:45:25;6.60;99.90
46732;DHT22;32477;51.474;5.696;2024-03-06T07:47:51;7.20;99.90
46732;DHT22;32477;51.474;5.696;2024-03-06T07:50:17;7.90;99.90
46732;DHT22;32477;51.474;5.696;2024-03-06T07:52:48;8.30;99.90
46732;DHT22;32477;51.474;5.696;2024-03-06T07:55:14;8.80;99.90
46732;DHT22;32477;51.474;5.696;2024-03-06T07:57:39;9.10;99.90
46732;DHT22;32477;51.474;5.696;2024-03-06T08:00:08;8.90;99.90
46732;DHT22;32477;51.474;5.696;2024-03-06T08:02:43;9.40;99.90
46732;DHT22;32477;51.474;5.696;2024-03-06T08:05:12;9.70;99.90
46732;DHT22;32477;51.474;5.696;2024-03-06T08:07:39;9.90;99.90
46732;DHT22;32477;51.474;5.696;2024-03-06T08:10:08;9.80;99.90
46732;DHT22;32477;51.474;5.696;2024-03-06T08:12:34;9.80;99.90
46732;DHT22;32477;51.474;5.696;2024-03-06T08:15:00;9.80;99.90
46732;DHT22;32477;51.474;5.696;2024-03-06T08:17:27;9.90;99.90
46732;DHT22;32477;51.474;5.696;2024-03-06T08:19:52;10.10;99.90
46732;DHT22;32477;51.474;5.696;2024-03-06T08:22:18;10.20;99.90
46732;DHT22;32477;51.474;5.696;2024-03-06T08:24:43;10.20;99.90
46732;DHT22;32477;51.474;5.696;2024-03-06T08:27:09;10.50;99.90
46732;DHT22;32477;51.474;5.696;2024-03-06T08:29:34;11.20;99.90
46732;DHT22;32477;51.474;5.696;2024-03-06T08:32:01;11.70;99.90
46732;DHT22;32477;51.474;5.696;2024-03-06T08:34:26;12.00;99.90
46732;DHT22;32477;51.474;5.696;2024-03-06T08:36:52;12.50;99.90
46732;DHT22;32477;51.474;5.696;2024-03-06T08:39:18;12.80;99.90
46732;DHT22;32477;51.474;5.696;2024-03-06T08:41:44;13.10;99.90
46732;DHT22;32477;51.474;5.696;2024-03-06T08:44:10;13.40;99.90
46732;DHT22;32477;51.474;5.696;2024-03-06T08:46:35;13.50;99.90
46732;DHT22;32477;51.474;5.696;2024-03-06T08:49:01;13.30;99.90
46732;DHT22;32477;51.474;5.696;2024-03-06T08:51:27;13.60;99.90
46732;DHT22;32477;51.474;5.696;2024-03-06T08:53:53;14.10;99.90
46732;DHT22;32477;51.474;5.696;2024-03-06T08:56:18;14.50;99.90
46732;DHT22;32477;51.474;5.696;2024-03-06T08:58:44;14.70;99.90
46732;DHT22;32477;51.474;5.696;2024-03-06T09:01:09;14.80;99.90
46732;DHT22;32477;51.474;5.696;2024-03-06T09:03:35;14.90;99.90
46732;DHT22;32477;51.474;5.696;2024-03-06T09:06:01;15.00;99.90
46732;DHT22;32477;51.474;5.696;2024-03-06T09:08:28;15.20;99.90
46732;DHT22;32477;51.474;5.696;2024-03-06T09:10:54;15.50;99.60
46732;DHT22;32477;51.474;5.696;2024-03-06T09:13:19;15.70;96.90
46732;DHT22;32477;51.474;5.696;2024-03-06T09:15:45;15.50;97.60
46732;DHT22;32477;51.474;5.696;2024-03-06T09:18:10;15.20;99.60
46732;DHT22;32477;51.474;5.696;2024-03-06T09:20:36;15.10;99.90
46732;DHT22;32477;51.474;5.696;2024-03-06T09:23:02;15.10;98.30
46732;DHT22;32477;51.474;5.696;2024-03-06T09:25:28;14.60;97.90
46732;DHT22;32477;51.474;5.696;2024-03-06T09:27:54;14.30;99.50
46732;DHT22;32477;51.474;5.696;2024-03-06T09:30:20;14.20;99.90
46732;DHT22;32477;51.474;5.696;2024-03-06T09:32:45;14.60;98.90
46732;DHT22;32477;51.474;5.696;2024-03-06T09:35:11;14.80;97.00
46732;DHT22;32477;51.474;5.696;2024-03-06T09:37:37;15.10;96.60
46732;DHT22;32477;51.474;5.696;2024-03-06T09:40:03;14.60;96.90
46732;DHT22;32477;51.474;5.696;2024-03-06T09:42:29;14.10;97.50
46732;DHT22;32477;51.474;5.696;2024-03-06T09:44:55;14.00;98.90
46732;DHT22;32477;51.474;5.696;2024-03-06T09:47:24;15.30;97.90
46732;DHT22;32477;51.474;5.696;2024-03-06T09:49:54;16.30;95.10
46732;DHT22;32477;51.474;5.696;2024-03-06T09:52:21;17.30;92.20
46732;DHT22;32477;51.474;5.696;2024-03-06T09:54:50;17.80;90.70
46732;DHT22;32477;51.474;5.696;2024-03-06T09:57:17;17.70;89.90
46732;DHT22;32477;51.474;5.696;2024-03-06T09:59:42;18.20;91.90
46732;DHT22;32477;51.474;5.696;2024-03-06T10:02:34;18.40;89.50
46732;DHT22;32477;51.474;5.696;2024-03-06T10:05:03;19.00;82.60
46732;DHT22;32477;51.474;5.696;2024-03-06T10:07:28;18.70;81.00
46732;DHT22;32477;51.474;5.696;2024-03-06T10:09:55;18.20;80.10
46732;DHT22;32477;51.474;5.696;2024-03-06T10:12:21;18.30;83.10
46732;DHT22;32477;51.474;5.696;2024-03-06T10:14:51;18.40;81.00
46732;DHT22;32477;51.474;5.696;2024-03-06T10:17:20;18.50;80.00
46732;DHT22;32477;51.474;5.696;2024-03-06T10:19:49;18.70;78.50
46732;DHT22;32477;51.474;5.696;2024-03-06T10:22:19;18.70;77.60
46732;DHT22;32477;51.474;5.696;2024-03-06T10:24:46;18.90;76.90
46732;DHT22;32477;51.474;5.696;2024-03-06T10:27:15;19.30;75.80
46732;DHT22;32477;51.474;5.696;2024-03-06T10:29:43;19.20;75.60
46732;DHT22;32477;51.474;5.696;2024-03-06T10:32:09;18.90;76.00
46732;DHT22;32477;51.474;5.696;2024-03-06T10:34:37;18.70;73.40
46732;DHT22;32477;51.474;5.696;2024-03-06T10:37:04;18.90;74.80
46732;DHT22;32477;51.474;5.696;2024-03-06T10:39:36;18.90;75.50
46732;DHT22;32477;51.474;5.696;2024-03-06T10:42:07;19.00;74.50
46732;DHT22;32477;51.474;5.696;2024-03-06T10:44:34;18.90;73.60
46732;DHT22;32477;51.474;5.696;2024-03-06T10:47:01;19.40;74.20
46732;DHT22;32477;51.474;5.696;2024-03-06T10:49:29;19.60;71.00
46732;DHT22;32477;51.474;5.696;2024-03-06T10:52:02;19.40;71.90
46732;DHT22;32477;51.474;5.696;2024-03-06T10:54:32;19.40;71.10
46732;DHT22;32477;51.474;5.696;2024-03-06T10:57:00;19.30;69.90
46732;DHT22;32477;51.474;5.696;2024-03-06T10:59:27;19.40;68.80
46732;DHT22;32477;51.474;5.696;2024-03-06T11:01:55;19.50;69.30
46732;DHT22;32477;51.474;5.696;2024-03-06T11:04:25;19.70;70.00
46732;DHT22;32477;51.474;5.696;2024-03-06T11:06:57;19.40;69.90
46732;DHT22;32477;51.474;5.696;2024-03-06T11:09:25;19.40;69.30
46732;DHT22;32477;51.474;5.696;2024-03-06T11:11:52;20.10;69.50
46732;DHT22;32477;51.474;5.696;2024-03-06T11:14:18;20.60;68.20
46732;DHT22;32477;51.474;5.696;2024-03-06T11:17:01;21.10;65.40
46732;DHT22;32477;51.474;5.696;2024-03-06T11:19:29;20.70;66.10
46732;DHT22;32477;51.474;5.696;2024-03-06T11:21:55;21.50;65.30
46732;DHT22;32477;51.474;5.696;2024-03-06T11:24:22;20.60;65.50
46732;DHT22;32477;51.474;5.696;2024-03-06T11:26:49;20.40;67.10
46732;DHT22;32477;51.474;5.696;2024-03-06T11:29:16;20.00;66.70
46732;DHT22;32477;51.474;5.696;2024-03-06T11:32:02;18.90;66.90
46732;DHT22;32477;51.474;5.696;2024-03-06T11:34:29;18.30;70.30
46732;DHT22;32477;51.474;5.696;2024-03-06T11:36:58;18.70;71.30
46732;DHT22;32477;51.474;5.696;2024-03-06T11:39:27;19.40;68.70
46732;DHT22;32477;51.474;5.696;2024-03-06T11:41:53;18.80;69.40
46732;DHT22;32477;51.474;5.696;2024-03-06T11:44:22;19.40;69.10
46732;DHT22;32477;51.474;5.696;2024-03-06T11:46:58;21.10;66.70
46732;DHT22;32477;51.474;5.696;2024-03-06T11:49:25;20.30;65.30
46732;DHT22;32477;51.474;5.696;2024-03-06T11:51:52;19.10;67.20
46732;DHT22;32477;51.474;5.696;2024-03-06T11:54:18;18.90;69.80
46732;DHT22;32477;51.474;5.696;2024-03-06T11:56:49;18.60;68.40
46732;DHT22;32477;51.474;5.696;2024-03-06T11:59:32;17.70;71.20
46732;DHT22;32477;51.474;5.696;2024-03-06T12:02:03;16.60;73.50
46732;DHT22;32477;51.474;5.696;2024-03-06T12:04:33;16.30;77.80
46732;DHT22;32477;51.474;5.696;2024-03-06T12:07:00;16.50;77.00
46732;DHT22;32477;51.474;5.696;2024-03-06T12:09:30;16.40;76.40
46732;DHT22;32477;51.474;5.696;2024-03-06T12:11:56;15.80;73.50
46732;DHT22;32477;51.474;5.696;2024-03-06T12:14:22;15.00;78.50
46732;DHT22;32477;51.474;5.696;2024-03-06T12:16:59;14.80;83.40
46732;DHT22;32477;51.474;5.696;2024-03-06T12:19:26;15.60;82.80
46732;DHT22;32477;51.474;5.696;2024-03-06T12:21:53;15.40;80.00
46732;DHT22;32477;51.474;5.696;2024-03-06T12:24:19;14.90;80.40
46732;DHT22;32477;51.474;5.696;2024-03-06T12:26:46;14.80;81.80
46732;DHT22;32477;51.474;5.696;2024-03-06T12:29:18;14.50;83.10
46732;DHT22;32477;51.474;5.696;2024-03-06T12:31:44;14.00;83.50
46732;DHT22;32477;51.474;5.696;2024-03-06T12:34:14;13.70;85.70
46732;DHT22;32477;51.474;5.696;2024-03-06T12:36:42;13.40;87.40
46732;DHT22;32477;51.474;5.696;2024-03-06T12:39:08;13.20;90.50
46732;DHT22;32477;51.474;5.696;2024-03-06T12:41:41;13.00;92.20
46732;DHT22;32477;51.474;5.696;2024-03-06T12:44:07;12.80;92.30
46732;DHT22;32477;51.474;5.696;2024-03-06T12:46:33;13.00;93.40
46732;DHT22;32477;51.474;5.696;2024-03-06T12:48:59;14.30;91.80
46732;DHT22;32477;51.474;5.696;2024-03-06T12:51:24;15.80;85.10
46732;DHT22;32477;51.474;5.696;2024-03-06T12:53:50;17.30;78.10
46732;DHT22;32477;51.474;5.696;2024-03-06T12:56:17;17.60;74.20
46732;DHT22;32477;51.474;5.696;2024-03-06T12:58:42;17.70;73.20
46732;DHT22;32477;51.474;5.696;2024-03-06T13:01:08;18.00;70.90
46732;DHT22;32477;51.474;5.696;2024-03-06T13:03:34;19.20;71.70
46732;DHT22;32477;51.474;5.696;2024-03-06T13:06:00;19.10;67.10
46732;DHT22;32477;51.474;5.696;2024-03-06T13:08:26;19.60;68.20
46732;DHT22;32477;51.474;5.696;2024-03-06T13:10:51;20.70;61.70
46732;DHT22;32477;51.474;5.696;2024-03-06T13:13:17;20.60;59.60
46732;DHT22;32477;51.474;5.696;2024-03-06T13:15:43;19.50;61.60
46732;DHT22;32477;51.474;5.696;2024-03-06T13:18:09;18.80;61.60
46732;DHT22;32477;51.474;5.696;2024-03-06T13:20:35;18.90;63.70
46732;DHT22;32477;51.474;5.696;2024-03-06T13:23:01;19.20;60.80
46732;DHT22;32477;51.474;5.696;2024-03-06T13:25:26;17.30;62.60
46732;DHT22;32477;51.474;5.696;2024-03-06T13:27:52;15.80;66.70
46732;DHT22;32477;51.474;5.696;2024-03-06T13:30:19;14.90;72.20
46732;DHT22;32477;51.474;5.696;2024-03-06T13:32:45;14.20;75.20
46732;DHT22;32477;51.474;5.696;2024-03-06T13:35:14;13.70;78.30
46732;DHT22;32477;51.474;5.696;2024-03-06T13:37:40;13.60;80.10
46732;DHT22;32477;51.474;5.696;2024-03-06T13:40:07;13.60;81.40
46732;DHT22;32477;51.474;5.696;2024-03-06T13:42:36;13.50;82.10
46732;DHT22;32477;51.474;5.696;2024-03-06T13:45:06;13.50;82.40
46732;DHT22;32477;51.474;5.696;2024-03-06T13:47:40;13.50;82.20
46732;DHT22;32477;51.474;5.696;2024-03-06T13:50:08;13.30;81.10
46732;DHT22;32477;51.474;5.696;2024-03-06T13:52:34;13.20;82.90
46732;DHT22;32477;51.474;5.696;2024-03-06T13:54:59;13.10;82.30
46732;DHT22;32477;51.474;5.696;2024-03-06T13:57:28;13.10;81.90
46732;DHT22;32477;51.474;5.696;2024-03-06T13:59:54;13.00;81.90
46732;DHT22;32477;51.474;5.696;2024-03-06T14:02:19;12.90;81.50
46732;DHT22;32477;51.474;5.696;2024-03-06T14:04:45;13.00;82.30
46732;DHT22;32477;51.474;5.696;2024-03-06T14:07:10;13.10;83.80
46732;DHT22;32477;51.474;5.696;2024-03-06T14:09:36;13.10;82.70
46732;DHT22;32477;51.474;5.696;2024-03-06T14:12:02;13.30;82.60
46732;DHT22;32477;51.474;5.696;2024-03-06T14:14:28;13.30;82.30
46732;DHT22;32477;51.474;5.696;2024-03-06T14:16:54;13.40;82.70
46732;DHT22;32477;51.474;5.696;2024-03-06T14:19:20;13.50;82.20
46732;DHT22;32477;51.474;5.696;2024-03-06T14:21:47;13.60;83.60
46732;DHT22;32477;51.474;5.696;2024-03-06T14:24:13;13.70;83.50
46732;DHT22;32477;51.474;5.696;2024-03-06T14:26:38;13.70;82.20
46732;DHT22;32477;51.474;5.696;2024-03-06T14:29:06;13.50;84.20
46732;DHT22;32477;51.474;5.696;2024-03-06T14:31:36;13.40;84.60
46732;DHT22;32477;51.474;5.696;2024-03-06T14:34:01;13.40;85.80
46732;DHT22;32477;51.474;5.696;2024-03-06T14:36:27;13.30;86.50
46732;DHT22;32477;51.474;5.696;2024-03-06T14:38:53;13.30;87.90
46732;DHT22;32477;51.474;5.696;2024-03-06T14:41:19;13.10;88.90
46732;DHT22;32477;51.474;5.696;2024-03-06T14:43:46;12.90;89.90
46732;DHT22;32477;51.474;5.696;2024-03-06T14:46:12;12.60;90.70
46732;DHT22;32477;51.474;5.696;2024-03-06T14:48:38;12.30;91.30
46732;DHT22;32477;51.474;5.696;2024-03-06T14:51:04;12.20;91.80
46732;DHT22;32477;51.474;5.696;2024-03-06T14:53:30;12.20;92.50
46732;DHT22;32477;51.474;5.696;2024-03-06T14:55:56;12.20;92.60
46732;DHT22;32477;51.474;5.696;2024-03-06T14:58:22;12.30;93.20
46732;DHT22;32477;51.474;5.696;2024-03-06T15:00:50;12.50;92.90
46732;DHT22;32477;51.474;5.696;2024-03-06T15:03:17;12.50;92.90
46732;DHT22;32477;51.474;5.696;2024-03-06T15:05:43;12.50;92.40
46732;DHT22;32477;51.474;5.696;2024-03-06T15:08:10;12.50;92.60
46732;DHT22;32477;51.474;5.696;2024-03-06T15:10:36;13.30;92.20
46732;DHT22;32477;51.474;5.696;2024-03-06T15:13:01;13.80;88.30
46732;DHT22;32477;51.474;5.696;2024-03-06T15:15:27;13.50;88.80
46732;DHT22;32477;51.474;5.696;2024-03-06T15:17:53;13.20;89.80
46732;DHT22;32477;51.474;5.696;2024-03-06T15:20:18;13.60;88.80
46732;DHT22;32477;51.474;5.696;2024-03-06T15:22:44;13.30;87.50
46732;DHT22;32477;51.474;5.696;2024-03-06T15:25:11;13.00;87.30
46732;DHT22;32477;51.474;5.696;2024-03-06T15:27:37;12.90;88.90
46732;DHT22;32477;51.474;5.696;2024-03-06T15:30:04;12.70;93.50
46732;DHT22;32477;51.474;5.696;2024-03-06T15:32:30;12.50;95.60
46732;DHT22;32477;51.474;5.696;2024-03-06T15:34:56;12.40;96.50
46732;DHT22;32477;51.474;5.696;2024-03-06T15:37:23;12.40;96.80